createdAt,value
2022-11-27T10:59:46.796Z,6.80
2022-11-27T11:01:50.962Z,7.13
2022-11-27T11:04:24.325Z,6.80
2022-11-27T11:06:27.209Z,6.97
2022-11-27T11:08:29.090Z,7.11
2022-11-27T11:10:33.597Z,7.41
2022-11-27T11:12:35.210Z,7.51
2022-11-27T11:14:36.582Z,7.45
2022-11-27T11:16:42.675Z,7.48
2022-11-27T11:18:45.906Z,7.58
2022-11-27T11:20:49.295Z,7.15
2022-11-27T11:22:51.414Z,6.92
2022-11-27T11:24:53.958Z,6.88
2022-11-27T11:26:57.937Z,7.20
2022-11-27T11:29:02.276Z,7.22
2022-11-27T11:31:07.257Z,7.22
2022-11-27T11:33:14.094Z,7.28
2022-11-27T11:35:26.300Z,7.43
2022-11-27T11:37:29.994Z,7.61
2022-11-27T11:39:35.309Z,7.84
2022-11-27T11:41:37.844Z,7.84
2022-11-27T11:43:39.900Z,7.83
2022-11-27T11:45:47.203Z,7.66
2022-11-27T11:47:50.325Z,7.62
2022-11-27T11:49:55.034Z,7.65
2022-11-27T11:52:15.524Z,7.55
2022-11-27T11:54:32.223Z,7.68
2022-11-27T11:56:39.752Z,7.53
2022-11-27T11:58:52.408Z,7.79
2022-11-27T12:03:51.405Z,7.57
2022-11-27T12:06:07.043Z,7.73
2022-11-27T12:08:36.792Z,7.87
2022-11-27T12:10:51.765Z,7.89
2022-11-27T12:13:04.551Z,7.73
2022-11-27T12:15:16.572Z,7.83
2022-11-27T12:17:35.230Z,7.83
2022-11-27T12:19:58.925Z,7.54
2022-11-27T12:22:14.280Z,7.61
2022-11-27T12:24:31.005Z,7.65
2022-11-27T12:26:48.975Z,7.63
2022-11-27T12:29:08.664Z,7.61
2022-11-27T12:31:18.280Z,7.68
2022-11-27T12:33:37.531Z,7.52
2022-11-27T12:35:44.508Z,7.37
2022-11-27T12:38:00.481Z,7.57
2022-11-27T12:40:18.075Z,7.36
2022-11-27T12:42:25.865Z,7.36
2022-11-27T12:44:36.290Z,7.33
2022-11-27T12:46:49.678Z,7.38
2022-11-27T12:48:55.202Z,7.26
2022-11-27T12:51:01.260Z,7.18
2022-11-27T12:53:14.001Z,7.07
2022-11-27T12:55:20.128Z,7.13
2022-11-27T12:57:27.377Z,7.26
2022-11-27T12:59:35.345Z,7.26
2022-11-27T13:01:40.844Z,7.25
2022-11-27T13:03:54.512Z,7.24
2022-11-27T13:05:59.829Z,7.13
2022-11-27T13:08:08.696Z,6.98
2022-11-27T13:10:18.417Z,7.02
2022-11-27T13:12:24.396Z,6.93
2022-11-27T13:14:27.295Z,7.11
2022-11-27T13:16:34.794Z,7.18
2022-11-27T13:18:39.798Z,7.15
2022-11-27T13:20:41.954Z,7.12
2022-11-27T13:22:43.846Z,7.11
2022-11-27T13:24:47.099Z,7.10
2022-11-27T13:26:55.638Z,7.07
2022-11-27T13:29:01.592Z,7.02
2022-11-27T13:31:05.202Z,7.08
2022-11-27T13:33:06.890Z,6.90
2022-11-27T13:35:18.767Z,7.04
2022-11-27T13:37:28.906Z,7.13
2022-11-27T13:39:34.249Z,7.01
2022-11-27T13:41:39.880Z,7.03
2022-11-27T13:43:43.906Z,6.99
2022-11-27T13:45:45.755Z,6.98
2022-11-27T13:47:48.138Z,7.03
2022-11-27T13:50:00.268Z,6.99
2022-11-27T13:52:09.562Z,6.95
2022-11-27T13:54:13.520Z,6.91
2022-11-27T13:56:15.120Z,6.72
2022-11-27T13:58:27.340Z,6.78
2022-11-27T14:00:35.555Z,6.74
2022-11-27T14:02:43.099Z,6.75
2022-11-27T14:04:53.074Z,6.67
2022-11-27T14:07:00.642Z,6.71
2022-11-27T14:09:04.468Z,6.65
2022-11-27T14:11:08.984Z,6.69
2022-11-27T14:13:10.615Z,6.57
2022-11-27T14:15:22.244Z,6.54
2022-11-27T14:17:32.595Z,6.68
2022-11-27T14:19:40.254Z,6.65
2022-11-27T14:21:42.255Z,6.79
2022-11-27T14:23:49.491Z,6.84
2022-11-27T14:26:01.827Z,6.73
2022-11-27T14:28:12.880Z,6.72
2022-11-27T14:30:25.176Z,6.73
2022-11-27T14:32:35.744Z,6.45
2022-11-27T14:34:37.239Z,6.57
2022-11-27T14:36:38.864Z,6.54
2022-11-27T14:38:40.217Z,6.48
2022-11-27T14:40:41.887Z,6.44
2022-11-27T14:42:43.212Z,6.44
2022-11-27T14:44:44.827Z,6.45
2022-11-27T14:46:47.796Z,6.49
2022-11-27T14:48:51.373Z,6.34
2022-11-27T14:50:55.138Z,6.27
2022-11-27T14:52:58.044Z,6.20
2022-11-27T14:55:00.952Z,6.22
2022-11-27T14:57:03.791Z,6.25
2022-11-27T14:59:05.593Z,6.33
2022-11-27T15:01:20.697Z,6.29
2022-11-27T15:03:25.319Z,6.30
2022-11-27T15:05:29.046Z,6.32
2022-11-27T15:07:33.632Z,6.11
2022-11-27T15:09:36.939Z,6.11
2022-11-27T15:11:55.229Z,6.00
2022-11-27T15:14:00.059Z,5.75
2022-11-27T15:16:05.856Z,5.92
2022-11-27T15:18:09.006Z,5.77
2022-11-27T15:20:15.703Z,5.89
2022-11-27T15:22:18.519Z,5.76
2022-11-27T15:24:29.393Z,5.84
2022-11-27T15:26:36.222Z,5.78
2022-11-27T15:28:40.618Z,5.89
2022-11-27T15:30:44.394Z,5.90
2022-11-27T15:32:47.669Z,5.94
2022-11-27T15:34:49.190Z,5.99
2022-11-27T15:36:56.704Z,5.94
2022-11-27T15:39:19.748Z,5.77
2022-11-27T15:41:24.029Z,5.84
2022-11-27T15:43:25.553Z,5.71
2022-11-27T15:45:29.292Z,5.77
2022-11-27T15:47:33.884Z,5.75
2022-11-27T15:49:35.388Z,5.76
2022-11-27T15:51:36.892Z,5.70
2022-11-27T15:53:39.802Z,5.75
2022-11-27T15:55:41.502Z,5.75
2022-11-27T15:57:43.223Z,5.86
2022-11-27T15:59:45.033Z,5.76
2022-11-27T16:01:46.980Z,5.62
2022-11-27T16:03:48.557Z,5.67
2022-11-27T16:05:50.093Z,5.80
2022-11-27T16:07:55.155Z,5.74
2022-11-27T16:09:58.532Z,5.64
2022-11-27T16:12:00.273Z,5.79
2022-11-27T16:14:01.824Z,5.77
2022-11-27T16:16:04.307Z,5.70
2022-11-27T16:18:05.939Z,5.77
2022-11-27T16:20:08.711Z,5.89
2022-11-27T16:22:10.292Z,5.78
2022-11-27T16:24:12.589Z,5.66
2022-11-27T16:26:15.464Z,5.63
2022-11-27T16:28:16.961Z,5.78
2022-11-27T16:30:18.576Z,5.77
2022-11-27T16:32:19.916Z,5.61
2022-11-27T16:34:21.423Z,5.66
2022-11-27T16:36:23.964Z,5.65
2022-11-27T16:38:25.908Z,5.69
2022-11-27T16:40:27.727Z,5.54
2022-11-27T16:42:30.616Z,5.41
2022-11-27T16:44:32.119Z,5.34
2022-11-27T16:46:33.612Z,5.21
2022-11-27T16:48:36.679Z,5.21
2022-11-27T16:50:38.198Z,5.36
2022-11-27T16:52:39.708Z,5.33
2022-11-27T16:54:41.530Z,5.15
2022-11-27T16:56:43.785Z,5.23
2022-11-27T16:58:47.560Z,5.22
2022-11-27T17:00:49.134Z,5.31
2022-11-27T17:02:50.740Z,5.23
2022-11-27T17:04:52.204Z,5.20
2022-11-27T17:06:53.825Z,5.13
2022-11-27T17:08:55.429Z,5.17
2022-11-27T17:10:56.929Z,5.25
2022-11-27T17:12:58.515Z,5.11
2022-11-27T17:15:01.436Z,5.13
2022-11-27T17:17:02.998Z,5.09
2022-11-27T17:19:05.101Z,5.10
2022-11-27T17:21:08.459Z,4.90
2022-11-27T17:23:09.954Z,4.87
2022-11-27T17:25:11.499Z,5.02
2022-11-27T17:27:13.000Z,4.96
2022-11-27T17:29:16.706Z,4.84
2022-11-27T17:31:22.653Z,4.80
2022-11-27T17:33:24.214Z,5.05
2022-11-27T17:35:25.740Z,5.14
2022-11-27T17:37:27.268Z,5.16
2022-11-27T17:39:28.804Z,5.05
2022-11-27T17:41:30.338Z,4.94
2022-11-27T17:43:32.053Z,4.79
2022-11-27T17:45:33.415Z,4.98
2022-11-27T17:47:36.351Z,4.97
2022-11-27T17:49:37.945Z,5.03
2022-11-27T17:51:39.479Z,4.88
2022-11-27T17:53:41.086Z,4.68
2022-11-27T17:55:42.726Z,4.70
2022-11-27T17:57:44.270Z,4.71
2022-11-27T17:59:45.799Z,4.90
2022-11-27T18:01:47.402Z,4.84
2022-11-27T18:03:51.440Z,4.81
2022-11-27T18:05:53.049Z,4.78
2022-11-27T18:07:54.768Z,4.60
2022-11-27T18:09:56.317Z,4.80
2022-11-27T18:11:58.023Z,4.58
2022-11-27T18:13:59.461Z,4.68
2022-11-27T18:16:06.350Z,4.86
2022-11-27T18:18:08.124Z,4.93
2022-11-27T18:20:11.527Z,4.72
2022-11-27T18:22:13.061Z,4.61
2022-11-27T18:24:23.120Z,4.66
2022-11-27T18:26:45.329Z,4.64
2022-11-27T18:28:48.005Z,4.64
2022-11-27T18:30:49.580Z,4.69
2022-11-27T18:32:51.131Z,4.73
2022-11-27T18:34:53.114Z,4.71
2022-11-27T18:36:56.053Z,4.70
2022-11-27T18:38:57.613Z,4.69
2022-11-27T18:41:05.944Z,4.77
2022-11-27T18:43:07.499Z,4.87
2022-11-27T18:45:25.297Z,4.85
2022-11-27T18:47:31.265Z,4.84
2022-11-27T18:49:32.805Z,4.93
2022-11-27T18:51:34.420Z,4.91
2022-11-27T18:53:37.429Z,4.98
2022-11-27T18:55:38.959Z,4.84
2022-11-27T18:57:40.492Z,4.92
2022-11-27T18:59:43.273Z,4.97
2022-11-27T19:01:45.192Z,4.80
2022-11-27T19:03:47.270Z,4.73
2022-11-27T19:05:48.865Z,4.70
2022-11-27T19:07:50.481Z,4.79
2022-11-27T19:09:53.528Z,4.71
2022-11-27T19:11:55.045Z,4.65
2022-11-27T19:13:57.539Z,4.55
2022-11-27T19:15:59.389Z,4.53
2022-11-27T19:18:00.941Z,4.57
2022-11-27T19:20:02.494Z,4.45
2022-11-27T19:22:04.054Z,4.47
2022-11-27T19:24:06.012Z,4.53
2022-11-27T19:26:10.413Z,4.45
2022-11-27T19:28:12.673Z,4.37
2022-11-27T19:30:14.461Z,4.37
2022-11-27T19:32:16.011Z,4.48
2022-11-27T19:34:18.780Z,4.34
2022-11-27T19:36:21.219Z,4.31
2022-11-27T19:38:22.738Z,4.34
2022-11-27T19:40:24.790Z,4.35
2022-11-27T19:42:27.666Z,4.24
2022-11-27T19:44:29.237Z,4.26
2022-11-27T19:46:32.610Z,4.32
2022-11-27T19:48:34.096Z,4.16
2022-11-27T19:50:35.824Z,4.42
2022-11-27T19:52:37.370Z,4.33
2022-11-27T19:54:39.323Z,4.33
2022-11-27T19:56:41.953Z,4.30
2022-11-27T19:58:45.113Z,4.49
2022-11-27T20:00:47.000Z,4.43
2022-11-27T20:02:48.969Z,4.43
2022-11-27T20:04:52.063Z,4.18
2022-11-27T20:06:53.606Z,4.14
2022-11-27T20:09:00.097Z,4.33
2022-11-27T20:11:02.591Z,4.26
2022-11-27T20:13:04.348Z,4.30
2022-11-27T20:15:10.623Z,4.16
2022-11-27T20:17:12.620Z,4.30
2022-11-27T20:19:14.455Z,4.21
2022-11-27T20:21:18.052Z,4.13
2022-11-27T20:23:19.614Z,4.27
2022-11-27T20:25:21.174Z,4.25
2022-11-27T20:27:22.711Z,4.31
2022-11-27T20:29:24.240Z,4.19
2022-11-27T20:31:28.966Z,4.13
2022-11-27T20:33:31.718Z,4.19
2022-11-27T20:35:33.378Z,4.33
2022-11-27T20:37:34.726Z,4.34
2022-11-27T20:39:36.525Z,4.29
2022-11-27T20:41:39.171Z,4.25
2022-11-27T20:43:41.440Z,4.22
2022-11-27T20:45:43.646Z,4.29
2022-11-27T20:47:46.604Z,4.41
2022-11-27T20:49:48.217Z,4.33
2022-11-27T20:51:49.957Z,4.31
2022-11-27T20:53:51.508Z,4.22
2022-11-27T20:55:52.996Z,4.03
2022-11-27T20:57:55.076Z,4.09
2022-11-27T20:59:56.773Z,4.18
2022-11-27T21:01:58.312Z,4.00
2022-11-27T21:04:03.183Z,4.06
2022-11-27T21:06:04.879Z,4.13
2022-11-27T21:08:06.191Z,4.04
2022-11-27T21:10:10.221Z,4.01
2022-11-27T21:12:11.742Z,4.03
2022-11-27T21:14:14.789Z,3.89
2022-11-27T21:16:16.492Z,4.05
2022-11-27T21:18:17.870Z,3.96
2022-11-27T21:20:20.744Z,4.06
2022-11-27T21:22:22.275Z,4.11
2022-11-27T21:24:25.048Z,4.14
2022-11-27T21:26:26.914Z,3.95
2022-11-27T21:28:29.921Z,4.20
2022-11-27T21:30:31.532Z,4.15
2022-11-27T21:32:33.064Z,4.13
2022-11-27T21:34:34.764Z,4.13
2022-11-27T21:36:37.703Z,4.11
2022-11-27T21:38:39.518Z,3.99
2022-11-27T21:40:41.324Z,4.12
2022-11-27T21:42:44.708Z,4.19
2022-11-27T21:44:46.577Z,4.13
2022-11-27T21:46:49.668Z,4.14
2022-11-27T21:48:53.042Z,4.13
2022-11-27T21:51:00.520Z,4.19
2022-11-27T21:53:03.469Z,4.26
2022-11-27T21:55:11.685Z,4.36
2022-11-27T21:57:13.655Z,4.28
2022-11-27T21:59:15.204Z,4.31
2022-11-27T22:01:18.824Z,4.20
2022-11-27T22:03:20.401Z,4.21
2022-11-27T22:05:21.931Z,4.26
2022-11-27T22:07:23.507Z,4.15
2022-11-27T22:09:26.428Z,4.28
2022-11-27T22:11:29.569Z,4.16
2022-11-27T22:13:31.453Z,4.00
2022-11-27T22:15:35.702Z,4.27
2022-11-27T22:17:38.410Z,4.26
2022-11-27T22:19:40.189Z,4.11
2022-11-27T22:21:42.511Z,4.15
2022-11-27T22:23:44.386Z,4.06
2022-11-27T22:25:47.321Z,4.13
2022-11-27T22:27:48.848Z,4.02
2022-11-27T22:29:51.096Z,3.93
2022-11-27T22:31:52.906Z,3.98
2022-11-27T22:33:54.444Z,4.01
2022-11-27T22:35:55.945Z,4.66
2022-11-27T22:37:57.477Z,4.43
2022-11-27T22:39:59.005Z,4.32
2022-11-27T22:42:01.967Z,4.14
2022-11-27T22:44:05.287Z,4.29
2022-11-27T22:46:08.580Z,4.31
2022-11-27T22:48:10.218Z,4.03
2022-11-27T22:50:11.749Z,4.10
2022-11-27T22:52:13.286Z,4.03
2022-11-27T22:54:15.241Z,4.08
2022-11-27T22:56:17.541Z,4.02
2022-11-27T22:58:20.413Z,4.03
2022-11-27T23:00:22.757Z,3.96
2022-11-27T23:02:24.366Z,3.95
2022-11-27T23:04:25.935Z,3.95
2022-11-27T23:06:27.810Z,4.03
2022-11-27T23:08:29.426Z,4.04
2022-11-27T23:10:30.923Z,4.18
2022-11-27T23:12:32.431Z,3.97
2022-11-27T23:14:35.627Z,3.95
2022-11-27T23:16:37.497Z,3.78
2022-11-27T23:18:39.338Z,3.82
2022-11-27T23:20:41.690Z,3.96
2022-11-27T23:22:43.217Z,3.88
2022-11-27T23:24:44.847Z,3.73
2022-11-27T23:26:46.369Z,3.85
2022-11-27T23:28:49.717Z,3.90
2022-11-27T23:31:08.805Z,3.93
2022-11-27T23:33:14.198Z,4.07
2022-11-27T23:35:15.814Z,4.01
2022-11-27T23:37:17.326Z,4.00
2022-11-27T23:39:18.941Z,3.89
2022-11-27T23:41:22.703Z,4.00
2022-11-27T23:43:24.459Z,3.96
2022-11-27T23:45:26.137Z,3.94
2022-11-27T23:47:29.042Z,3.92
2022-11-27T23:49:31.170Z,3.92
2022-11-27T23:51:33.865Z,3.81
2022-11-27T23:53:36.134Z,4.01
2022-11-27T23:55:37.888Z,3.87
2022-11-27T23:57:39.504Z,3.83
2022-11-27T23:59:41.204Z,3.69
